sensor_id;sensor_type;location;lat;lon;timestamp;pressure;altitude;pressure_sealevel;temperature;humidity
78123;BME280;67376;44.802;10.332;2023-03-23T00:02:26;100908.38;;;20.26;43.44
78123;BME280;67376;44.802;10.332;2023-03-23T00:04:52;100908.38;;;20.26;43.34
78123;BME280;67376;44.802;10.332;2023-03-23T00:07:21;100907.56;;;20.25;42.94
78123;BME280;67376;44.802;10.332;2023-03-23T00:09:48;100904.03;;;20.25;43.08
78123;BME280;67376;44.802;10.332;2023-03-23T00:12:23;100906.75;;;20.25;43.57
78123;BME280;67376;44.802;10.332;2023-03-23T00:14:55;100904.25;;;20.23;43.21
78123;BME280;67376;44.802;10.332;2023-03-23T00:17:20;100910.28;;;20.25;43.40
78123;BME280;67376;44.802;10.332;2023-03-23T00:19:45;100913.22;;;20.24;43.50
78123;BME280;67376;44.802;10.332;2023-03-23T00:22:15;100911.34;;;20.24;43.43
78123;BME280;67376;44.802;10.332;2023-03-23T00:24:42;100905.91;;;20.24;42.89
78123;BME280;67376;44.802;10.332;2023-03-23T00:27:08;100905.09;;;20.24;43.68
78123;BME280;67376;44.802;10.332;2023-03-23T00:29:34;100900.72;;;20.23;42.74
78123;BME280;67376;44.802;10.332;2023-03-23T00:31:59;100907.78;;;20.24;43.22
78123;BME280;67376;44.802;10.332;2023-03-23T00:34:25;100907.78;;;20.24;42.62
78123;BME280;67376;44.802;10.332;2023-03-23T00:36:52;100908.63;;;20.24;43.13
78123;BME280;67376;44.802;10.332;2023-03-23T00:39:25;100906.97;;;20.23;42.79
78123;BME280;67376;44.802;10.332;2023-03-23T00:41:52;100891.75;;;20.22;43.09
78123;BME280;67376;44.802;10.332;2023-03-23T00:44:19;100893.41;;;20.23;42.65
78123;BME280;67376;44.802;10.332;2023-03-23T00:46:48;100899.09;;;20.22;42.37
78123;BME280;67376;44.802;10.332;2023-03-23T00:49:19;100896.38;;;20.22;42.70
78123;BME280;67376;44.802;10.332;2023-03-23T00:51:45;100891.75;;;20.22;42.92
78123;BME280;67376;44.802;10.332;2023-03-23T00:54:11;100889.03;;;20.22;42.93
78123;BME280;67376;44.802;10.332;2023-03-23T00:56:37;100883.63;;;20.22;42.06
78123;BME280;67376;44.802;10.332;2023-03-23T00:59:04;100884.44;;;20.23;42.02
78123;BME280;67376;44.802;10.332;2023-03-23T01:01:30;100878.19;;;20.22;42.05
78123;BME280;67376;44.802;10.332;2023-03-23T01:03:58;100883.41;;;20.24;41.80
78123;BME280;67376;44.802;10.332;2023-03-23T01:06:27;100883.63;;;20.22;41.68
78123;BME280;67376;44.802;10.332;2023-03-23T01:08:53;100873.59;;;20.23;42.28
78123;BME280;67376;44.802;10.332;2023-03-23T01:11:19;100878.19;;;20.22;42.42
78123;BME280;67376;44.802;10.332;2023-03-23T01:13:45;100870.06;;;20.22;42.22
78123;BME280;67376;44.802;10.332;2023-03-23T01:16:11;100872.78;;;20.22;42.31
78123;BME280;67376;44.802;10.332;2023-03-23T01:18:37;100869.28;;;20.22;42.14
78123;BME280;67376;44.802;10.332;2023-03-23T01:21:08;100869.50;;;20.20;41.94
78123;BME280;67376;44.802;10.332;2023-03-23T01:23:34;100864.66;;;20.22;41.47
78123;BME280;67376;44.802;10.332;2023-03-23T01:26:14;100865.72;;;20.21;42.15
78123;BME280;67376;44.802;10.332;2023-03-23T01:28:40;100864.66;;;20.22;41.67
78123;BME280;67376;44.802;10.332;2023-03-23T01:31:08;100862.75;;;20.23;41.92
78123;BME280;67376;44.802;10.332;2023-03-23T01:33:34;100871.72;;;20.23;41.27
78123;BME280;67376;44.802;10.332;2023-03-23T01:36:10;100864.09;;;20.20;41.61
78123;BME280;67376;44.802;10.332;2023-03-23T01:38:35;100858.66;;;20.20;41.41
78123;BME280;67376;44.802;10.332;2023-03-23T01:41:02;100858.66;;;20.20;41.20
78123;BME280;67376;44.802;10.332;2023-03-23T01:43:27;100859.50;;;20.21;42.12
78123;BME280;67376;44.802;10.332;2023-03-23T01:45:53;100858.66;;;20.20;41.20
78123;BME280;67376;44.802;10.332;2023-03-23T01:53:39;100864.09;;;20.20;41.20
78123;BME280;67376;44.802;10.332;2023-03-23T01:56:07;100868.69;;;20.20;41.47
78123;BME280;67376;44.802;10.332;2023-03-23T01:58:36;100863.03;;;20.21;40.87
78123;BME280;67376;44.802;10.332;2023-03-23T02:01:05;100876.59;;;20.21;41.76
78123;BME280;67376;44.802;10.332;2023-03-23T02:03:34;100866.19;;;20.18;40.80
78123;BME280;67376;44.802;10.332;2023-03-23T02:06:00;100869.50;;;20.20;41.10
78123;BME280;67376;44.802;10.332;2023-03-23T02:08:29;100868.69;;;20.20;41.41
78123;BME280;67376;44.802;10.332;2023-03-23T02:10:57;100865.38;;;20.18;41.49
78123;BME280;67376;44.802;10.332;2023-03-23T02:13:23;100875.16;;;20.19;41.71
78123;BME280;67376;44.802;10.332;2023-03-23T02:26:42;100867.03;;;20.19;41.69
78123;BME280;67376;44.802;10.332;2023-03-23T02:34:17;100870.78;;;20.18;41.36
78123;BME280;67376;44.802;10.332;2023-03-23T02:39:37;100867.03;;;20.19;41.20
78123;BME280;67376;44.802;10.332;2023-03-23T02:42:08;100873.50;;;20.18;41.11
78123;BME280;67376;44.802;10.332;2023-03-23T02:44:36;100868.09;;;20.18;40.57
78123;BME280;67376;44.802;10.332;2023-03-23T02:47:05;100865.38;;;20.18;40.28
78123;BME280;67376;44.802;10.332;2023-03-23T02:49:32;100863.72;;;20.17;41.20
78123;BME280;67376;44.802;10.332;2023-03-23T02:52:02;100862.88;;;20.16;40.96
78123;BME280;67376;44.802;10.332;2023-03-23T02:54:30;100854.75;;;20.16;40.95
78123;BME280;67376;44.802;10.332;2023-03-23T02:56:57;100845.81;;;20.16;40.80
78123;BME280;67376;44.802;10.332;2023-03-23T02:59:23;100844.75;;;20.17;40.31
78123;BME280;67376;44.802;10.332;2023-03-23T03:01:51;100841.19;;;20.16;40.83
78123;BME280;67376;44.802;10.332;2023-03-23T03:04:22;100839.31;;;20.17;40.41
78123;BME280;67376;44.802;10.332;2023-03-23T03:09:49;100842.03;;;20.17;39.92
78123;BME280;67376;44.802;10.332;2023-03-23T03:12:40;100842.03;;;20.17;40.77
78123;BME280;67376;44.802;10.332;2023-03-23T03:17:38;100841.66;;;20.13;40.39
78123;BME280;67376;44.802;10.332;2023-03-23T03:20:09;100841.44;;;20.15;40.55
78123;BME280;67376;44.802;10.332;2023-03-23T03:22:38;100844.59;;;20.11;40.36
78123;BME280;67376;44.802;10.332;2023-03-23T03:25:05;100844.97;;;20.15;40.51
78123;BME280;67376;44.802;10.332;2023-03-23T03:27:31;100840.59;;;20.14;40.11
78123;BME280;67376;44.802;10.332;2023-03-23T03:29:59;100848.75;;;20.14;39.99
78123;BME280;67376;44.802;10.332;2023-03-23T03:32:29;100847.91;;;20.14;40.64
78123;BME280;67376;44.802;10.332;2023-03-23T03:34:59;100853.34;;;20.14;40.40
78123;BME280;67376;44.802;10.332;2023-03-23T03:37:25;100853.34;;;20.14;40.67
78123;BME280;67376;44.802;10.332;2023-03-23T03:39:51;100857.94;;;20.13;39.75
78123;BME280;67376;44.802;10.332;2023-03-23T03:42:16;100856.28;;;20.12;39.65
78123;BME280;67376;44.802;10.332;2023-03-23T03:44:42;100856.03;;;20.14;39.66
78123;BME280;67376;44.802;10.332;2023-03-23T03:47:07;100864.19;;;20.14;40.57
78123;BME280;67376;44.802;10.332;2023-03-23T03:49:33;100867.72;;;20.14;40.38
78123;BME280;67376;44.802;10.332;2023-03-23T03:51:58;100862.28;;;20.14;39.45
78123;BME280;67376;44.802;10.332;2023-03-23T03:54:24;100857.94;;;20.13;39.31
78123;BME280;67376;44.802;10.332;2023-03-23T03:56:49;100867.94;;;20.13;40.17
78123;BME280;67376;44.802;10.332;2023-03-23T03:59:16;100864.41;;;20.12;40.12
78123;BME280;67376;44.802;10.332;2023-03-23T04:01:42;100856.28;;;20.12;39.48
78123;BME280;67376;44.802;10.332;2023-03-23T04:04:07;100863.34;;;20.13;39.21
78123;BME280;67376;44.802;10.332;2023-03-23T04:06:34;100862.75;;;20.11;39.33
78123;BME280;67376;44.802;10.332;2023-03-23T04:09:02;100860.88;;;20.11;39.97
78123;BME280;67376;44.802;10.332;2023-03-23T04:11:30;100861.94;;;20.10;39.46
78123;BME280;67376;44.802;10.332;2023-03-23T04:13:56;100866.28;;;20.11;39.79
78123;BME280;67376;44.802;10.332;2023-03-23T04:16:21;100867.13;;;20.12;39.97
78123;BME280;67376;44.802;10.332;2023-03-23T04:18:47;100875.25;;;20.12;39.91
78123;BME280;67376;44.802;10.332;2023-03-23T04:21:13;100872.53;;;20.12;39.93
78123;BME280;67376;44.802;10.332;2023-03-23T04:23:39;100880.66;;;20.12;39.16
78123;BME280;67376;44.802;10.332;2023-03-23T04:26:05;100875.25;;;20.12;38.90
78123;BME280;67376;44.802;10.332;2023-03-23T04:28:31;100879.03;;;20.11;39.44
78123;BME280;67376;44.802;10.332;2023-03-23T04:31:00;100882.78;;;20.10;40.01
78123;BME280;67376;44.802;10.332;2023-03-23T04:33:27;100882.78;;;20.10;39.05
78123;BME280;67376;44.802;10.332;2023-03-23T04:35:54;100887.16;;;20.11;39.11
78123;BME280;67376;44.802;10.332;2023-03-23T04:38:23;100887.16;;;20.11;39.55
78123;BME280;67376;44.802;10.332;2023-03-23T04:40:51;100893.63;;;20.10;39.82
78123;BME280;67376;44.802;10.332;2023-03-23T04:43:21;100887.38;;;20.09;39.55
78123;BME280;67376;44.802;10.332;2023-03-23T04:45:58;100893.03;;;20.08;38.88
78123;BME280;67376;44.802;10.332;2023-03-23T04:48:26;100893.63;;;20.10;38.80
78123;BME280;67376;44.802;10.332;2023-03-23T04:50:53;100898.22;;;20.09;39.45
78123;BME280;67376;44.802;10.332;2023-03-23T04:53:19;100887.94;;;20.00;39.29
78123;BME280;67376;44.802;10.332;2023-03-23T04:55:44;100896.34;;;20.10;39.59
78123;BME280;67376;44.802;10.332;2023-03-23T04:58:10;100896.56;;;20.08;39.19
78123;BME280;67376;44.802;10.332;2023-03-23T05:00:37;100904.69;;;20.08;39.79
78123;BME280;67376;44.802;10.332;2023-03-23T05:03:03;100905.53;;;20.09;39.46
78123;BME280;67376;44.802;10.332;2023-03-23T05:05:29;100905.75;;;20.07;38.97
78123;BME280;67376;44.802;10.332;2023-03-23T05:07:56;100906.00;;;20.06;39.10
78123;BME280;67376;44.802;10.332;2023-03-23T05:10:22;100906.00;;;20.06;39.48
78123;BME280;67376;44.802;10.332;2023-03-23T05:12:48;100908.47;;;20.07;39.20
78123;BME280;67376;44.802;10.332;2023-03-23T05:15:14;100915.78;;;20.07;39.37
78123;BME280;67376;44.802;10.332;2023-03-23T05:17:41;100907.88;;;20.05;38.77
78123;BME280;67376;44.802;10.332;2023-03-23T05:20:17;100917.06;;;20.04;39.01
78123;BME280;67376;44.802;10.332;2023-03-23T05:22:47;100911.63;;;20.04;39.04
78123;BME280;67376;44.802;10.332;2023-03-23T05:25:15;100911.88;;;20.03;39.96
78123;BME280;67376;44.802;10.332;2023-03-23T05:27:41;100913.75;;;20.02;39.30
78123;BME280;67376;44.802;10.332;2023-03-23T05:30:14;100915.63;;;20.02;39.61
78123;BME280;67376;44.802;10.332;2023-03-23T05:32:42;100904.41;;;19.98;39.68
78123;BME280;67376;44.802;10.332;2023-03-23T05:35:08;100908.19;;;19.97;39.55
78123;BME280;67376;44.802;10.332;2023-03-23T05:37:33;100921.50;;;19.99;39.78
78123;BME280;67376;44.802;10.332;2023-03-23T05:39:59;100920.69;;;19.98;38.91
78123;BME280;67376;44.802;10.332;2023-03-23T05:42:31;100922.34;;;19.99;38.93
78123;BME280;67376;44.802;10.332;2023-03-23T05:44:56;100925.66;;;20.01;39.73
78123;BME280;67376;44.802;10.332;2023-03-23T05:47:22;100924.81;;;20.01;39.43
78123;BME280;67376;44.802;10.332;2023-03-23T05:49:48;100935.66;;;20.01;39.16
78123;BME280;67376;44.802;10.332;2023-03-23T05:52:13;100937.53;;;20.00;38.78
78123;BME280;67376;44.802;10.332;2023-03-23T05:54:39;100948.16;;;20.02;38.70
78123;BME280;67376;44.802;10.332;2023-03-23T05:57:06;100945.22;;;20.03;38.86
78123;BME280;67376;44.802;10.332;2023-03-23T05:59:32;100950.63;;;20.03;39.02
78123;BME280;67376;44.802;10.332;2023-03-23T06:01:58;100948.75;;;20.04;38.99
78123;BME280;67376;44.802;10.332;2023-03-23T06:04:24;100956.06;;;20.03;39.36
78123;BME280;67376;44.802;10.332;2023-03-23T06:06:51;100957.09;;;20.02;38.95
78123;BME280;67376;44.802;10.332;2023-03-23T06:09:17;100961.25;;;20.05;39.53
78123;BME280;67376;44.802;10.332;2023-03-23T06:11:43;100955.00;;;20.04;38.85
78123;BME280;67376;44.802;10.332;2023-03-23T06:14:09;100959.59;;;20.04;39.68
78123;BME280;67376;44.802;10.332;2023-03-23T06:16:34;100960.41;;;20.04;39.62
78123;BME280;67376;44.802;10.332;2023-03-23T06:19:00;100970.22;;;20.05;39.24
78123;BME280;67376;44.802;10.332;2023-03-23T06:21:26;100971.03;;;20.06;39.50
78123;BME280;67376;44.802;10.332;2023-03-23T06:23:52;100968.56;;;20.04;39.92
78123;BME280;67376;44.802;10.332;2023-03-23T06:26:18;100973.75;;;20.06;39.66
78123;BME280;67376;44.802;10.332;2023-03-23T06:28:45;100977.28;;;20.06;39.77
78123;BME280;67376;44.802;10.332;2023-03-23T06:31:10;100974.56;;;20.06;40.09
78123;BME280;67376;44.802;10.332;2023-03-23T06:33:37;100981.19;;;20.10;40.35
78123;BME280;67376;44.802;10.332;2023-03-23T06:36:04;100983.69;;;20.12;40.55
78123;BME280;67376;44.802;10.332;2023-03-23T06:38:30;100983.06;;;20.10;40.74
78123;BME280;67376;44.802;10.332;2023-03-23T06:40:56;100981.66;;;20.07;40.29
78123;BME280;67376;44.802;10.332;2023-03-23T06:43:23;100988.13;;;20.06;40.25
78123;BME280;67376;44.802;10.332;2023-03-23T06:45:49;100981.66;;;20.07;40.12
78123;BME280;67376;44.802;10.332;2023-03-23T06:48:15;100998.13;;;20.06;40.06
78123;BME280;67376;44.802;10.332;2023-03-23T06:50:45;100986.03;;;19.72;37.03
78123;BME280;67376;44.802;10.332;2023-03-23T06:53:12;100985.22;;;18.78;36.90
78123;BME280;67376;44.802;10.332;2023-03-23T06:55:38;100983.78;;;18.38;36.64
78123;BME280;67376;44.802;10.332;2023-03-23T06:58:08;101000.09;;;17.40;37.92
78123;BME280;67376;44.802;10.332;2023-03-23T07:00:34;100993.22;;;17.77;37.75
78123;BME280;67376;44.802;10.332;2023-03-23T07:03:00;100991.53;;;17.63;37.91
78123;BME280;67376;44.802;10.332;2023-03-23T07:05:26;100978.22;;;17.88;37.46
78123;BME280;67376;44.802;10.332;2023-03-23T07:07:52;100995.50;;;17.61;37.87
78123;BME280;67376;44.802;10.332;2023-03-23T07:10:18;100985.78;;;18.11;36.90
78123;BME280;67376;44.802;10.332;2023-03-23T07:12:44;100994.50;;;18.51;36.90
78123;BME280;67376;44.802;10.332;2023-03-23T07:15:10;100989.78;;;18.78;37.72
78123;BME280;67376;44.802;10.332;2023-03-23T07:17:37;100987.16;;;18.96;36.92
78123;BME280;67376;44.802;10.332;2023-03-23T07:20:04;100986.81;;;19.11;37.27
78123;BME280;67376;44.802;10.332;2023-03-23T07:22:30;100989.00;;;19.21;37.44
78123;BME280;67376;44.802;10.332;2023-03-23T07:24:55;100982.72;;;19.27;37.43
78123;BME280;67376;44.802;10.332;2023-03-23T07:27:21;100982.66;;;19.33;36.46
78123;BME280;67376;44.802;10.332;2023-03-23T07:29:46;100988.84;;;19.40;36.82
78123;BME280;67376;44.802;10.332;2023-03-23T07:32:12;100978.16;;;19.45;37.26
78123;BME280;67376;44.802;10.332;2023-03-23T07:34:38;100984.78;;;19.50;36.87
78123;BME280;67376;44.802;10.332;2023-03-23T07:37:04;100987.91;;;19.53;36.64
78123;BME280;67376;44.802;10.332;2023-03-23T07:39:30;100988.28;;;19.57;37.29
78123;BME280;67376;44.802;10.332;2023-03-23T07:41:55;100986.41;;;19.57;36.49
78123;BME280;67376;44.802;10.332;2023-03-23T07:44:21;100986.19;;;19.59;37.32
78123;BME280;67376;44.802;10.332;2023-03-23T07:46:47;100987.03;;;19.59;37.63
78123;BME280;67376;44.802;10.332;2023-03-23T07:49:12;100987.97;;;19.65;36.55
78123;BME280;67376;44.802;10.332;2023-03-23T07:51:38;100988.22;;;19.63;36.95
78123;BME280;67376;44.802;10.332;2023-03-23T07:54:05;100993.16;;;19.66;36.99
78123;BME280;67376;44.802;10.332;2023-03-23T07:56:32;100983.38;;;19.65;37.34
78123;BME280;67376;44.802;10.332;2023-03-23T07:58:58;100984.59;;;19.69;37.36
78123;BME280;67376;44.802;10.332;2023-03-23T08:01:23;100979.16;;;19.69;37.51
78123;BME280;67376;44.802;10.332;2023-03-23T08:03:49;100980.81;;;19.70;36.79
78123;BME280;67376;44.802;10.332;2023-03-23T08:06:16;100979.56;;;19.73;37.63
78123;BME280;67376;44.802;10.332;2023-03-23T08:08:41;100983.91;;;19.74;37.96
78123;BME280;67376;44.802;10.332;2023-03-23T08:11:07;100974.72;;;19.75;37.33
78123;BME280;67376;44.802;10.332;2023-03-23T08:13:33;100985.56;;;19.75;37.96
78123;BME280;67376;44.802;10.332;2023-03-23T08:15:59;100989.72;;;19.77;37.00
78123;BME280;67376;44.802;10.332;2023-03-23T08:18:29;100987.84;;;19.78;37.81
78123;BME280;67376;44.802;10.332;2023-03-23T08:20:54;100986.78;;;19.79;38.05
78123;BME280;67376;44.802;10.332;2023-03-23T08:23:20;100993.63;;;19.82;37.46
78123;BME280;67376;44.802;10.332;2023-03-23T08:25:47;100988.22;;;19.82;37.58
78123;BME280;67376;44.802;10.332;2023-03-23T08:28:12;100998.59;;;19.85;37.11
78123;BME280;67376;44.802;10.332;2023-03-23T08:30:40;100999.66;;;19.84;38.28
78123;BME280;67376;44.802;10.332;2023-03-23T08:33:05;100994.22;;;19.84;37.48
78123;BME280;67376;44.802;10.332;2023-03-23T08:35:32;101009.22;;;19.86;37.86
78123;BME280;67376;44.802;10.332;2023-03-23T08:37:58;101004.63;;;19.87;38.00
78123;BME280;67376;44.802;10.332;2023-03-23T08:40:24;101007.31;;;19.87;38.42
78123;BME280;67376;44.802;10.332;2023-03-23T08:42:51;101008.16;;;19.87;37.91
78123;BME280;67376;44.802;10.332;2023-03-23T08:45:22;101010.63;;;19.89;38.25
78123;BME280;67376;44.802;10.332;2023-03-23T08:47:48;101006.03;;;19.89;37.71
78123;BME280;67376;44.802;10.332;2023-03-23T08:50:26;101003.34;;;19.89;37.82
78123;BME280;67376;44.802;10.332;2023-03-23T08:52:52;101010.41;;;19.90;38.24
78123;BME280;67376;44.802;10.332;2023-03-23T08:55:18;101018.53;;;19.90;38.52
78123;BME280;67376;44.802;10.332;2023-03-23T08:57:44;101019.16;;;19.92;38.66
78123;BME280;67376;44.802;10.332;2023-03-23T09:00:14;101021.84;;;19.92;38.37
78123;BME280;67376;44.802;10.332;2023-03-23T09:02:42;101019.97;;;19.93;38.58
78123;BME280;67376;44.802;10.332;2023-03-23T09:05:08;101014.34;;;19.94;38.85
78123;BME280;67376;44.802;10.332;2023-03-23T09:07:35;101023.06;;;19.96;38.04
78123;BME280;67376;44.802;10.332;2023-03-23T09:10:01;101023.88;;;19.97;38.37
78123;BME280;67376;44.802;10.332;2023-03-23T09:12:27;101022.84;;;19.98;37.92
78123;BME280;67376;44.802;10.332;2023-03-23T09:14:52;101019.28;;;19.97;38.12
78123;BME280;67376;44.802;10.332;2023-03-23T09:17:18;101015.53;;;19.98;38.15
78123;BME280;67376;44.802;10.332;2023-03-23T09:19:43;101016.38;;;19.99;38.54
78123;BME280;67376;44.802;10.332;2023-03-23T09:22:09;101019.06;;;19.99;38.86
78123;BME280;67376;44.802;10.332;2023-03-23T09:24:34;101026.16;;;20.00;39.07
78123;BME280;67376;44.802;10.332;2023-03-23T09:27:00;101016.13;;;20.00;38.93
78123;BME280;67376;44.802;10.332;2023-03-23T09:29:26;101023.44;;;20.00;38.22
78123;BME280;67376;44.802;10.332;2023-03-23T09:31:53;101021.56;;;20.00;39.07
78123;BME280;67376;44.802;10.332;2023-03-23T09:34:18;101020.50;;;20.01;39.18
78123;BME280;67376;44.802;10.332;2023-03-23T09:36:44;101025.91;;;20.01;38.99
78123;BME280;67376;44.802;10.332;2023-03-23T09:39:10;101025.91;;;20.01;38.32
78123;BME280;67376;44.802;10.332;2023-03-23T09:44:47;101020.88;;;20.05;39.01
78123;BME280;67376;44.802;10.332;2023-03-23T09:47:35;101017.13;;;20.06;39.32
78123;BME280;67376;44.802;10.332;2023-03-23T09:50:08;101017.34;;;20.04;38.87
78123;BME280;67376;44.802;10.332;2023-03-23T09:52:56;101021.94;;;20.04;38.38
78123;BME280;67376;44.802;10.332;2023-03-23T09:55:23;101017.34;;;20.04;38.57
78123;BME280;67376;44.802;10.332;2023-03-23T09:57:58;101019.00;;;20.05;38.67
78123;BME280;67376;44.802;10.332;2023-03-23T10:00:29;101026.06;;;20.06;38.73
78123;BME280;67376;44.802;10.332;2023-03-23T10:03:17;101031.50;;;20.06;39.48
78123;BME280;67376;44.802;10.332;2023-03-23T10:05:48;101031.50;;;20.06;39.56
78123;BME280;67376;44.802;10.332;2023-03-23T10:08:17;101032.31;;;20.07;38.61
78123;BME280;67376;44.802;10.332;2023-03-23T10:13:49;101033.38;;;20.06;38.57
78123;BME280;67376;44.802;10.332;2023-03-23T10:16:39;101017.34;;;20.04;38.70
78123;BME280;67376;44.802;10.332;2023-03-23T10:21:48;101017.13;;;20.06;39.31
78123;BME280;67376;44.802;10.332;2023-03-23T10:24:20;101024.78;;;20.09;39.49
78123;BME280;67376;44.802;10.332;2023-03-23T10:26:59;101023.13;;;20.08;39.45
78123;BME280;67376;44.802;10.332;2023-03-23T10:29:34;101023.75;;;20.10;39.49
78123;BME280;67376;44.802;10.332;2023-03-23T10:34:56;101012.66;;;20.11;38.74
78123;BME280;67376;44.802;10.332;2023-03-23T10:37:26;101014.56;;;20.11;38.90
78123;BME280;67376;44.802;10.332;2023-03-23T10:42:29;101010.56;;;20.14;39.89
78123;BME280;67376;44.802;10.332;2023-03-23T10:44:59;101013.28;;;20.14;39.59
78123;BME280;67376;44.802;10.332;2023-03-23T10:47:24;101007.03;;;20.13;38.56
78123;BME280;67376;44.802;10.332;2023-03-23T10:49:54;101008.06;;;20.12;39.62
78123;BME280;67376;44.802;10.332;2023-03-23T10:52:33;101006.19;;;20.13;39.78
78123;BME280;67376;44.802;10.332;2023-03-23T10:55:20;101011.38;;;20.14;38.99
78123;BME280;67376;44.802;10.332;2023-03-23T11:00:26;101008.69;;;20.14;39.10
78123;BME280;67376;44.802;10.332;2023-03-23T11:03:02;100997.00;;;20.14;39.89
78123;BME280;67376;44.802;10.332;2023-03-23T11:05:42;101003.25;;;20.14;39.14
78123;BME280;67376;44.802;10.332;2023-03-23T11:08:28;100997.84;;;20.14;39.35
78123;BME280;67376;44.802;10.332;2023-03-23T11:11:08;100986.75;;;20.16;39.98
78123;BME280;67376;44.802;10.332;2023-03-23T11:13:39;100993.25;;;20.15;38.91
78123;BME280;67376;44.802;10.332;2023-03-23T11:16:07;100978.63;;;20.16;39.60
78123;BME280;67376;44.802;10.332;2023-03-23T11:18:42;100970.34;;;20.10;39.91
78123;BME280;67376;44.802;10.332;2023-03-23T11:21:12;100971.78;;;20.13;39.25
78123;BME280;67376;44.802;10.332;2023-03-23T11:23:39;100971.56;;;20.15;39.53
78123;BME280;67376;44.802;10.332;2023-03-23T11:26:14;100969.44;;;20.17;39.07
78123;BME280;67376;44.802;10.332;2023-03-23T11:31:28;100961.53;;;20.15;39.25
78123;BME280;67376;44.802;10.332;2023-03-23T11:34:04;100958.81;;;20.15;39.95
78123;BME280;67376;44.802;10.332;2023-03-23T11:36:31;100966.13;;;20.15;40.12
78123;BME280;67376;44.802;10.332;2023-03-23T11:38:58;100966.72;;;20.17;39.82
78123;BME280;67376;44.802;10.332;2023-03-23T11:41:24;100961.53;;;20.15;39.48
78123;BME280;67376;44.802;10.332;2023-03-23T11:43:53;100967.78;;;20.16;39.03
78123;BME280;67376;44.802;10.332;2023-03-23T11:55:26;100966.72;;;20.17;39.81
78123;BME280;67376;44.802;10.332;2023-03-23T11:57:55;100966.72;;;20.17;39.87
78123;BME280;67376;44.802;10.332;2023-03-23T12:00:22;100967.78;;;20.16;39.41
78123;BME280;67376;44.802;10.332;2023-03-23T12:03:08;100970.50;;;20.16;40.07
78123;BME280;67376;44.802;10.332;2023-03-23T12:13:35;100956.72;;;20.17;39.07
78123;BME280;67376;44.802;10.332;2023-03-23T12:26:56;100937.75;;;20.17;39.38
78123;BME280;67376;44.802;10.332;2023-03-23T12:35:09;100926.91;;;20.17;40.10
78123;BME280;67376;44.802;10.332;2023-03-23T12:46:07;100903.31;;;20.18;39.42
78123;BME280;67376;44.802;10.332;2023-03-23T12:48:40;100904.97;;;20.19;39.25
78123;BME280;67376;44.802;10.332;2023-03-23T12:51:24;100902.25;;;20.19;40.02
78123;BME280;67376;44.802;10.332;2023-03-23T12:56:31;100896.84;;;20.19;39.18
78123;BME280;67376;44.802;10.332;2023-03-23T13:02:27;100883.28;;;20.19;39.13
78123;BME280;67376;44.802;10.332;2023-03-23T13:05:06;100883.28;;;20.19;38.95
78123;BME280;67376;44.802;10.332;2023-03-23T13:07:42;100880.59;;;20.19;39.72
78123;BME280;67376;44.802;10.332;2023-03-23T13:10:26;100875.97;;;20.19;40.19
78123;BME280;67376;44.802;10.332;2023-03-23T13:12:53;100875.97;;;20.19;39.05
78123;BME280;67376;44.802;10.332;2023-03-23T13:18:24;100868.69;;;20.20;39.41
78123;BME280;67376;44.802;10.332;2023-03-23T13:22:09;100870.34;;;20.21;39.42
78123;BME280;67376;44.802;10.332;2023-03-23T13:24:07;100861.38;;;20.20;39.24
78123;BME280;67376;44.802;10.332;2023-03-23T13:26:38;100847.81;;;20.20;39.42
78123;BME280;67376;44.802;10.332;2023-03-23T13:29:13;100850.75;;;20.19;39.67
78123;BME280;67376;44.802;10.332;2023-03-23T13:31:40;100852.19;;;20.21;39.96
78123;BME280;67376;44.802;10.332;2023-03-23T13:34:25;100849.47;;;20.21;39.45
78123;BME280;67376;44.802;10.332;2023-03-23T13:36:59;100838.84;;;20.20;39.61
78123;BME280;67376;44.802;10.332;2023-03-23T13:39:30;100838.03;;;20.19;40.21
78123;BME280;67376;44.802;10.332;2023-03-23T13:44:25;100836.75;;;20.22;39.92
78123;BME280;67376;44.802;10.332;2023-03-23T13:46:57;100835.66;;;20.23;39.20
78123;BME280;67376;44.802;10.332;2023-03-23T13:49:24;100829.16;;;20.24;40.03
78123;BME280;67376;44.802;10.332;2023-03-23T13:54:24;100822.69;;;20.25;40.23
78123;BME280;67376;44.802;10.332;2023-03-23T13:59:32;100822.47;;;20.26;40.02
78123;BME280;67376;44.802;10.332;2023-03-23T14:02:27;100809.72;;;20.27;39.21
78123;BME280;67376;44.802;10.332;2023-03-23T14:04:55;100804.06;;;20.28;40.21
78123;BME280;67376;44.802;10.332;2023-03-23T14:07:21;100802.19;;;20.29;39.26
78123;BME280;67376;44.802;10.332;2023-03-23T14:09:49;100797.81;;;20.28;39.55
78123;BME280;67376;44.802;10.332;2023-03-23T14:12:21;100792.16;;;20.29;39.98
78123;BME280;67376;44.802;10.332;2023-03-23T14:14:50;100792.75;;;20.31;39.59
78123;BME280;67376;44.802;10.332;2023-03-23T14:17:23;100796.28;;;20.32;39.15
78123;BME280;67376;44.802;10.332;2023-03-23T14:19:54;100797.94;;;20.33;39.29
78123;BME280;67376;44.802;10.332;2023-03-23T14:22:47;100785.22;;;20.33;39.92
78123;BME280;67376;44.802;10.332;2023-03-23T14:25:15;100784.16;;;20.34;39.74
78123;BME280;67376;44.802;10.332;2023-03-23T14:27:41;100785.81;;;20.35;39.98
78123;BME280;67376;44.802;10.332;2023-03-23T14:30:13;100787.47;;;20.36;40.00
78123;BME280;67376;44.802;10.332;2023-03-23T14:32:39;100770.00;;;20.32;39.97
78123;BME280;67376;44.802;10.332;2023-03-23T14:35:33;100778.50;;;20.36;39.53
78123;BME280;67376;44.802;10.332;2023-03-23T14:37:57;100780.78;;;20.39;39.69